createdAt,value
2022-08-09T00:04:37.184Z,0.90
2022-08-09T00:09:54.176Z,0.82
2022-08-09T00:15:13.903Z,1.15
2022-08-09T00:20:31.540Z,1.30
2022-08-09T00:25:51.902Z,1.08
2022-08-09T00:31:09.344Z,0.98
2022-08-09T00:36:42.899Z,1.15
2022-08-09T00:44:10.392Z,1.13
2022-08-09T00:47:39.588Z,0.95
2022-08-09T00:52:55.903Z,0.88
2022-08-09T00:58:14.668Z,1.00
2022-08-09T01:03:45.630Z,0.93
2022-08-09T01:09:01.943Z,0.90
2022-08-09T01:14:16.945Z,0.90
2022-08-09T01:19:42.475Z,0.90
2022-08-09T01:25:07.202Z,1.20
2022-08-09T01:30:33.585Z,1.20
2022-08-09T01:35:51.800Z,1.08
2022-08-09T01:41:08.193Z,0.85
2022-08-09T01:46:26.469Z,1.00
2022-08-09T01:51:44.321Z,1.20
2022-08-09T01:57:08.139Z,0.80
2022-08-09T02:02:24.251Z,1.30
2022-08-09T02:08:40.465Z,1.10
2022-08-09T02:13:25.877Z,1.02
2022-08-09T02:18:52.203Z,1.10
2022-08-09T02:24:07.959Z,1.10
2022-08-09T02:29:23.872Z,0.90
2022-08-09T02:34:51.979Z,1.30
2022-08-09T02:40:11.958Z,0.98
2022-08-09T02:45:28.827Z,1.23
2022-08-09T02:50:44.104Z,0.80
2022-08-09T02:56:01.128Z,1.27
2022-08-09T03:01:21.835Z,1.10
2022-08-09T03:06:51.985Z,1.38
2022-08-09T03:12:11.091Z,1.05
2022-08-09T03:17:28.890Z,1.35
2022-08-09T03:22:43.899Z,1.10
2022-08-09T03:27:58.933Z,1.05
2022-08-09T03:33:18.905Z,1.20
2022-08-09T03:38:35.174Z,1.20
2022-08-09T03:44:08.272Z,1.55
2022-08-09T03:49:24.222Z,1.13
2022-08-09T03:54:48.162Z,1.50
2022-08-09T04:00:06.863Z,1.30
2022-08-09T04:05:27.975Z,1.35
2022-08-09T04:10:44.190Z,1.52
2022-08-09T04:16:20.007Z,1.20
2022-08-09T04:21:40.171Z,1.40
2022-08-09T04:26:56.191Z,1.42
2022-08-09T04:32:11.872Z,1.00
2022-08-09T04:37:45.713Z,1.38
2022-08-09T04:43:01.896Z,1.30
2022-08-09T04:48:18.875Z,1.60
2022-08-09T04:53:34.949Z,1.48
2022-08-09T04:58:50.860Z,1.23
2022-08-09T05:04:06.252Z,1.73
2022-08-09T05:09:23.235Z,1.00
2022-08-09T05:14:41.428Z,1.70
2022-08-09T05:19:58.201Z,1.27
2022-08-09T05:25:15.158Z,1.60
2022-08-09T05:30:31.326Z,1.23
2022-08-09T05:35:50.106Z,1.48
2022-08-09T05:41:06.259Z,1.70
2022-08-09T05:46:28.950Z,1.67
2022-08-09T05:51:46.064Z,2.00
2022-08-09T05:57:01.923Z,1.58
2022-08-09T06:02:22.222Z,1.52
2022-08-09T06:07:37.965Z,1.30
2022-08-09T06:12:59.338Z,1.70
2022-08-09T06:18:27.978Z,1.50
2022-08-09T06:23:58.918Z,1.42
2022-08-09T06:29:17.181Z,1.58
2022-08-09T06:34:36.980Z,1.80
2022-08-09T06:40:00.024Z,1.60
2022-08-09T06:46:05.040Z,1.25
2022-08-09T06:50:52.923Z,1.63
2022-08-09T06:56:07.960Z,1.42
2022-08-09T07:01:27.468Z,1.27
2022-08-09T07:06:53.111Z,1.20
2022-08-09T07:12:17.528Z,1.55
2022-08-09T07:17:39.704Z,1.17
2022-08-09T07:22:56.092Z,1.33
2022-08-09T07:28:19.409Z,0.95
2022-08-09T07:33:52.621Z,1.17
2022-08-09T07:39:11.721Z,1.27
2022-08-09T07:44:51.973Z,1.05
2022-08-09T07:50:09.308Z,1.08
2022-08-09T07:55:24.913Z,1.30
2022-08-09T08:00:58.759Z,0.80
2022-08-09T08:06:21.257Z,0.90
2022-08-09T08:12:24.707Z,1.25
2022-08-09T08:17:35.455Z,0.95
2022-08-09T08:23:01.743Z,1.20
2022-08-09T08:28:31.964Z,1.20
2022-08-09T08:33:52.653Z,1.10
2022-08-09T08:39:10.619Z,1.33
2022-08-09T08:44:28.961Z,1.05
2022-08-09T08:49:46.804Z,0.73
2022-08-09T08:55:05.941Z,1.08
2022-08-09T09:00:30.223Z,1.05
2022-08-09T09:06:00.909Z,1.58
2022-08-09T09:11:20.184Z,0.85
2022-08-09T09:16:36.027Z,0.70
2022-08-09T09:21:51.261Z,0.80
2022-08-09T09:27:07.020Z,0.90
2022-08-09T09:32:34.283Z,0.60
2022-08-09T09:37:51.294Z,0.82
2022-08-09T09:43:06.971Z,1.02
2022-08-09T09:48:28.950Z,0.90
2022-08-09T09:53:57.532Z,0.80
2022-08-09T09:59:17.023Z,0.90
2022-08-09T10:04:33.944Z,0.60
2022-08-09T10:09:48.939Z,0.55
2022-08-09T10:15:17.313Z,0.70
2022-08-09T10:20:44.738Z,0.40
2022-08-09T10:26:06.266Z,0.70
2022-08-09T10:36:58.900Z,0.95
2022-08-09T10:42:15.954Z,0.63
2022-08-09T10:48:16.369Z,0.73
2022-08-09T10:53:10.273Z,0.80
2022-08-09T10:58:25.930Z,0.70
2022-08-09T11:03:51.411Z,0.63
2022-08-09T11:09:15.839Z,0.65
2022-08-09T11:15:09.982Z,0.50
2022-08-09T11:20:32.931Z,0.70
2022-08-09T11:25:49.402Z,0.55
2022-08-09T11:31:06.828Z,0.70
2022-08-09T11:36:30.420Z,0.60
2022-08-09T11:41:53.650Z,0.50
2022-08-09T11:47:14.427Z,0.70
2022-08-09T11:53:16.564Z,0.60
2022-08-09T11:58:06.062Z,0.60
2022-08-09T12:03:55.000Z,0.32
2022-08-09T12:08:58.019Z,0.60
2022-08-09T12:14:36.830Z,0.68
2022-08-09T12:19:50.932Z,0.50
2022-08-09T12:25:15.194Z,0.60
2022-08-09T12:30:36.287Z,0.50
2022-08-09T12:35:54.308Z,0.68
2022-08-09T12:41:13.907Z,0.60
2022-08-09T12:46:29.251Z,0.52
2022-08-09T12:52:00.218Z,0.73
2022-08-09T12:57:18.975Z,0.65
2022-08-09T13:02:34.119Z,0.60
2022-08-09T13:07:51.757Z,0.40
2022-08-09T13:13:10.877Z,0.63
2022-08-09T13:18:27.263Z,0.70
2022-08-09T13:24:16.694Z,0.60
2022-08-09T13:29:17.946Z,0.70
2022-08-09T13:34:33.998Z,0.57
2022-08-09T13:41:50.418Z,0.50
2022-08-09T13:45:32.179Z,0.68
2022-08-09T13:50:59.914Z,1.08
2022-08-09T13:56:14.951Z,0.63
2022-08-09T14:02:01.381Z,0.70
2022-08-09T14:07:10.335Z,0.70
2022-08-09T14:12:26.041Z,0.50
2022-08-09T14:18:19.363Z,1.10
2022-08-09T14:23:22.951Z,0.50
2022-08-09T14:28:52.257Z,0.68
2022-08-09T14:34:08.305Z,0.50
2022-08-09T14:39:47.536Z,0.50
2022-08-09T14:45:00.954Z,0.50
2022-08-09T14:50:17.539Z,0.60
2022-08-09T14:55:33.252Z,0.60
2022-08-09T15:00:51.054Z,0.47
2022-08-09T15:06:06.989Z,0.47
2022-08-09T15:11:23.920Z,0.45
2022-08-09T15:16:39.264Z,0.30
2022-08-09T15:22:02.105Z,0.47
2022-08-09T15:27:17.691Z,0.50
2022-08-09T15:32:34.016Z,0.55
2022-08-09T15:37:56.981Z,0.40
2022-08-09T15:43:24.916Z,0.50
2022-08-09T15:49:20.924Z,0.55
2022-08-09T15:54:35.533Z,0.50
2022-08-09T15:59:57.929Z,0.60
2022-08-09T16:05:12.943Z,0.73
2022-08-09T16:10:55.912Z,0.63
2022-08-09T16:16:11.244Z,0.50
2022-08-09T16:21:34.883Z,0.55
2022-08-09T16:26:51.030Z,0.60
2022-08-09T16:32:18.804Z,0.65
2022-08-09T16:37:55.990Z,0.80
2022-08-09T16:43:12.020Z,0.63
2022-08-09T16:48:39.218Z,0.75
2022-08-09T16:54:26.259Z,0.50
2022-08-09T16:59:35.924Z,0.50
2022-08-09T17:04:59.198Z,0.43
2022-08-09T17:10:16.327Z,0.50
2022-08-09T17:16:00.290Z,0.47
2022-08-09T17:21:08.302Z,0.50
2022-08-09T17:26:31.266Z,0.70
2022-08-09T17:31:49.033Z,0.38
2022-08-09T17:37:05.355Z,0.70
2022-08-09T17:42:41.962Z,0.55
2022-08-09T17:48:02.689Z,0.70
2022-08-09T17:53:22.445Z,0.50
2022-08-09T17:58:38.242Z,1.05
2022-08-09T18:03:57.962Z,0.70
2022-08-09T18:09:13.962Z,0.70
2022-08-09T18:14:32.254Z,0.63
2022-08-09T18:20:57.359Z,0.60
2022-08-09T18:25:50.679Z,0.68
2022-08-09T18:30:58.287Z,0.50
2022-08-09T18:36:32.155Z,0.77
2022-08-09T18:41:52.482Z,0.50
2022-08-09T18:47:15.926Z,0.55
2022-08-09T18:52:34.980Z,0.90
2022-08-09T18:57:50.942Z,0.70
2022-08-09T19:03:12.313Z,0.70
2022-08-09T19:08:28.256Z,0.65
2022-08-09T19:13:51.211Z,0.90
2022-08-09T19:19:25.725Z,0.60
2022-08-09T19:25:09.852Z,0.82
2022-08-09T19:30:22.426Z,0.50
2022-08-09T19:35:58.263Z,0.70
2022-08-09T19:41:14.004Z,0.85
2022-08-09T19:46:50.913Z,0.80
2022-08-09T19:52:09.025Z,0.80
2022-08-09T19:57:27.722Z,0.73
2022-08-09T20:04:12.176Z,0.75
2022-08-09T20:08:24.990Z,0.52
2022-08-09T20:13:54.245Z,0.68
2022-08-09T20:19:49.047Z,0.60
2022-08-09T20:24:53.312Z,0.77
2022-08-09T20:30:10.040Z,0.90
2022-08-09T20:35:24.962Z,0.63
2022-08-09T20:40:41.140Z,0.90
2022-08-09T20:46:33.140Z,0.65
2022-08-09T20:51:41.195Z,0.77
2022-08-09T20:56:58.014Z,1.20
2022-08-09T21:02:17.762Z,0.65
2022-08-09T21:07:40.726Z,0.70
2022-08-09T21:13:00.995Z,0.55
2022-08-09T21:18:25.184Z,0.70
2022-08-09T21:23:51.279Z,0.90
2022-08-09T21:29:11.709Z,0.80
2022-08-09T21:34:29.693Z,0.57
2022-08-09T21:39:45.346Z,0.70
2022-08-09T21:45:05.013Z,0.40
2022-08-09T21:50:33.871Z,0.80
2022-08-09T21:55:53.867Z,0.50
2022-08-09T22:01:11.929Z,0.82
2022-08-09T22:06:42.032Z,0.60
2022-08-09T22:12:17.548Z,0.80
2022-08-09T22:17:33.115Z,0.70
2022-08-09T22:22:49.033Z,0.60
2022-08-09T22:28:07.224Z,0.50
2022-08-09T22:33:22.991Z,0.32
2022-08-09T22:38:53.286Z,0.50
2022-08-09T22:44:09.670Z,0.40
2022-08-09T22:49:24.710Z,0.50
2022-08-09T22:54:46.849Z,0.60
2022-08-09T23:00:03.237Z,0.70
2022-08-09T23:05:19.330Z,0.60
2022-08-09T23:10:40.370Z,0.60
2022-08-09T23:16:02.873Z,0.52
2022-08-09T23:21:24.460Z,0.65
2022-08-09T23:26:41.031Z,0.45
2022-08-09T23:31:55.988Z,0.40
2022-08-09T23:37:11.069Z,0.50
2022-08-09T23:42:25.955Z,0.60
2022-08-09T23:47:40.986Z,0.52
2022-08-09T23:52:56.058Z,0.60
2022-08-09T23:58:27.733Z,0.40
